Weather at Busan Transportation Corporation Heliport

Public forecast

Using degrees Celsius for public forecast. Weather courtesy of forecast.io.

Closest aviation weather report (METAR) to Busan Transportation Corporation Heliport

Closest report is Gimhae International Airport, 6.2 nm (11.6 km) WNW. Retrieved 2020/10/25 21:00 UTC (48 minutes ago):

RKPK 252100Z 36007KT CAVOK 09/05 Q1019

Closest aviation forecast (TAF) to Busan Transportation Corporation Heliport

Closest forecast is Gimhae International Airport, 6.2 nm (11.6 km) WNW. Retrieved 2020/10/25 18:00 UTC (4 hours ago):

TAF RKPK 251700Z 2518/2624 33006KT CAVOK TN09/2521Z TX20/2606Z